Main page
METAR-TAF:

METAR-TAF

Airports :

Norwich Airport

Norwich, England

latitude: 52-38N, longitude: 001-18E, elevation: 14 m

Current weather observation

The report was made 38 minutes ago, at 19:20 UTC
Wind 6 kt from the East/Northeast
Temperature 14°C
Humidity 67%
Pressure 1023 hPa
Visibility 10 km or more
no clouds below 1500 m and no cumulonimbus

METAR: EGSH 191920Z 06006KT CAVOK 14/08 Q1023

Time: 20:58 (19:58 UTC)

Forecast

The report was made 3 hours and 2 minutes ago, at 16:56 UTC
Forecast valid from 19 at 18 UTC to 20 at 03 UTC
Wind 9 kt from the North/Northeast
Visibility 10 km or more
Few clouds at a height of 4500 ft
Probability 30%
from 19 at 23 UTC to 20 at 03 UTC
Visibility: 5000 m
mist,

TAF: EGSH 191656Z 1918/2003 02009KT 9999 FEW045 PROB30 1923/2003 5000 BR

Weather observations and forecasts of more than 4000 airports (METAR and TAF reports).

The available stations are represented by yellow and red dots on the map.

Hover mouse over dot to see the name of the station.

Then click to see weather observations and forecasts.

To change the map : click on the green buttons with a black cross to zoom in, on the green button with a dash to zoom out, or on the green arrows for adjacent maps.


METAR-TAF: